sensor_id;sensor_type;location;lat;lon;timestamp;P1;durP1;ratioP1;P2;durP2;ratioP2
8048;SDS011;20935;42.660;23.342;2023-04-24T00:01:09;17.63;;;9.17;;
8048;SDS011;20935;42.660;23.342;2023-04-24T00:03:56;9.50;;;8.07;;
8048;SDS011;20935;42.660;23.342;2023-04-24T00:06:42;10.47;;;8.03;;
8048;SDS011;20935;42.660;23.342;2023-04-24T00:09:29;10.27;;;8.20;;
8048;SDS011;20935;42.660;23.342;2023-04-24T00:12:14;10.43;;;7.77;;
8048;SDS011;20935;42.660;23.342;2023-04-24T00:15:00;10.90;;;8.83;;
8048;SDS011;20935;42.660;23.342;2023-04-24T00:17:46;9.87;;;8.57;;
8048;SDS011;20935;42.660;23.342;2023-04-24T00:20:31;10.00;;;8.93;;
8048;SDS011;20935;42.660;23.342;2023-04-24T00:23:17;12.67;;;10.07;;
8048;SDS011;20935;42.660;23.342;2023-04-24T00:26:03;10.87;;;9.73;;
8048;SDS011;20935;42.660;23.342;2023-04-24T00:28:49;12.60;;;10.17;;
8048;SDS011;20935;42.660;23.342;2023-04-24T00:31:34;14.67;;;10.13;;
8048;SDS011;20935;42.660;23.342;2023-04-24T00:34:20;12.40;;;8.37;;
8048;SDS011;20935;42.660;23.342;2023-04-24T00:37:05;12.27;;;8.00;;
8048;SDS011;20935;42.660;23.342;2023-04-24T00:39:51;10.53;;;9.37;;
8048;SDS011;20935;42.660;23.342;2023-04-24T00:42:38;12.90;;;8.53;;
8048;SDS011;20935;42.660;23.342;2023-04-24T00:45:25;10.17;;;8.40;;
8048;SDS011;20935;42.660;23.342;2023-04-24T00:48:10;9.20;;;7.90;;
8048;SDS011;20935;42.660;23.342;2023-04-24T00:50:56;9.43;;;8.50;;
8048;SDS011;20935;42.660;23.342;2023-04-24T00:53:42;11.33;;;8.10;;
8048;SDS011;20935;42.660;23.342;2023-04-24T00:56:28;12.00;;;8.40;;
8048;SDS011;20935;42.660;23.342;2023-04-24T00:59:14;9.73;;;8.77;;
8048;SDS011;20935;42.660;23.342;2023-04-24T01:02:01;9.10;;;8.10;;
8048;SDS011;20935;42.660;23.342;2023-04-24T01:04:47;12.90;;;9.83;;
8048;SDS011;20935;42.660;23.342;2023-04-24T01:07:34;9.20;;;6.30;;
8048;SDS011;20935;42.660;23.342;2023-04-24T01:10:20;6.27;;;5.57;;
8048;SDS011;20935;42.660;23.342;2023-04-24T01:13:05;7.57;;;6.83;;
8048;SDS011;20935;42.660;23.342;2023-04-24T01:15:54;10.53;;;7.60;;
8048;SDS011;20935;42.660;23.342;2023-04-24T01:18:40;8.53;;;6.70;;
8048;SDS011;20935;42.660;23.342;2023-04-24T01:21:26;10.07;;;7.07;;
8048;SDS011;20935;42.660;23.342;2023-04-24T01:24:13;7.80;;;7.10;;
8048;SDS011;20935;42.660;23.342;2023-04-24T01:26:59;10.70;;;8.00;;
8048;SDS011;20935;42.660;23.342;2023-04-24T01:29:45;10.00;;;6.60;;
8048;SDS011;20935;42.660;23.342;2023-04-24T01:32:31;8.80;;;6.60;;
8048;SDS011;20935;42.660;23.342;2023-04-24T01:35:17;8.53;;;6.50;;
8048;SDS011;20935;42.660;23.342;2023-04-24T01:38:02;10.93;;;7.03;;
8048;SDS011;20935;42.660;23.342;2023-04-24T01:40:49;9.53;;;7.00;;
8048;SDS011;20935;42.660;23.342;2023-04-24T01:43:35;6.43;;;5.80;;
8048;SDS011;20935;42.660;23.342;2023-04-24T01:46:21;9.63;;;6.47;;
8048;SDS011;20935;42.660;23.342;2023-04-24T01:49:07;9.50;;;6.60;;
8048;SDS011;20935;42.660;23.342;2023-04-24T01:51:53;7.87;;;6.83;;
8048;SDS011;20935;42.660;23.342;2023-04-24T01:54:38;7.27;;;6.00;;
8048;SDS011;20935;42.660;23.342;2023-04-24T01:57:25;8.07;;;7.27;;
8048;SDS011;20935;42.660;23.342;2023-04-24T02:00:11;12.03;;;7.20;;
8048;SDS011;20935;42.660;23.342;2023-04-24T02:02:57;7.40;;;6.63;;
8048;SDS011;20935;42.660;23.342;2023-04-24T02:05:43;11.60;;;7.80;;
8048;SDS011;20935;42.660;23.342;2023-04-24T02:08:28;8.87;;;6.80;;
8048;SDS011;20935;42.660;23.342;2023-04-24T02:11:14;10.13;;;7.90;;
8048;SDS011;20935;42.660;23.342;2023-04-24T02:14:01;8.40;;;7.50;;
8048;SDS011;20935;42.660;23.342;2023-04-24T02:16:46;10.00;;;6.73;;
8048;SDS011;20935;42.660;23.342;2023-04-24T02:19:32;7.57;;;6.50;;
8048;SDS011;20935;42.660;23.342;2023-04-24T02:22:17;7.37;;;6.77;;
8048;SDS011;20935;42.660;23.342;2023-04-24T02:25:03;10.30;;;7.03;;
8048;SDS011;20935;42.660;23.342;2023-04-24T02:27:50;8.30;;;7.40;;
8048;SDS011;20935;42.660;23.342;2023-04-24T02:30:36;9.37;;;7.07;;
8048;SDS011;20935;42.660;23.342;2023-04-24T02:33:22;8.67;;;7.47;;
8048;SDS011;20935;42.660;23.342;2023-04-24T02:36:07;14.67;;;7.40;;
8048;SDS011;20935;42.660;23.342;2023-04-24T02:38:53;9.37;;;7.43;;
8048;SDS011;20935;42.660;23.342;2023-04-24T02:41:38;9.30;;;7.43;;
8048;SDS011;20935;42.660;23.342;2023-04-24T02:44:23;8.03;;;7.03;;
8048;SDS011;20935;42.660;23.342;2023-04-24T02:47:10;9.30;;;7.47;;
8048;SDS011;20935;42.660;23.342;2023-04-24T02:49:56;7.90;;;7.10;;
8048;SDS011;20935;42.660;23.342;2023-04-24T02:52:41;9.00;;;7.87;;
8048;SDS011;20935;42.660;23.342;2023-04-24T02:55:26;9.43;;;7.57;;
8048;SDS011;20935;42.660;23.342;2023-04-24T02:58:12;10.60;;;8.10;;
8048;SDS011;20935;42.660;23.342;2023-04-24T03:00:57;9.27;;;7.70;;
8048;SDS011;20935;42.660;23.342;2023-04-24T03:03:44;16.40;;;7.53;;
8048;SDS011;20935;42.660;23.342;2023-04-24T03:06:29;11.17;;;7.60;;
8048;SDS011;20935;42.660;23.342;2023-04-24T03:09:16;9.27;;;7.00;;
8048;SDS011;20935;42.660;23.342;2023-04-24T03:12:01;10.97;;;7.57;;
8048;SDS011;20935;42.660;23.342;2023-04-24T03:14:47;8.73;;;6.70;;
8048;SDS011;20935;42.660;23.342;2023-04-24T03:17:32;10.50;;;6.70;;
8048;SDS011;20935;42.660;23.342;2023-04-24T03:20:20;9.90;;;7.40;;
8048;SDS011;20935;42.660;23.342;2023-04-24T03:23:06;8.87;;;7.37;;
8048;SDS011;20935;42.660;23.342;2023-04-24T03:25:51;12.67;;;8.23;;
8048;SDS011;20935;42.660;23.342;2023-04-24T03:28:38;8.03;;;6.73;;
8048;SDS011;20935;42.660;23.342;2023-04-24T03:31:24;11.17;;;7.57;;
8048;SDS011;20935;42.660;23.342;2023-04-24T03:34:10;9.60;;;7.57;;
8048;SDS011;20935;42.660;23.342;2023-04-24T03:36:56;8.60;;;7.80;;
8048;SDS011;20935;42.660;23.342;2023-04-24T03:39:42;10.13;;;8.03;;
8048;SDS011;20935;42.660;23.342;2023-04-24T03:42:27;9.70;;;8.73;;
8048;SDS011;20935;42.660;23.342;2023-04-24T03:45:13;10.30;;;7.83;;
8048;SDS011;20935;42.660;23.342;2023-04-24T03:47:58;10.57;;;9.20;;
8048;SDS011;20935;42.660;23.342;2023-04-24T03:50:44;8.40;;;7.60;;
8048;SDS011;20935;42.660;23.342;2023-04-24T03:53:31;13.73;;;8.33;;
8048;SDS011;20935;42.660;23.342;2023-04-24T03:56:16;14.03;;;8.03;;
8048;SDS011;20935;42.660;23.342;2023-04-24T03:59:01;8.77;;;7.87;;
8048;SDS011;20935;42.660;23.342;2023-04-24T04:01:47;11.70;;;8.00;;
8048;SDS011;20935;42.660;23.342;2023-04-24T04:04:32;12.37;;;8.87;;
8048;SDS011;20935;42.660;23.342;2023-04-24T04:07:18;12.00;;;9.53;;
8048;SDS011;20935;42.660;23.342;2023-04-24T04:10:07;9.97;;;8.97;;
8048;SDS011;20935;42.660;23.342;2023-04-24T04:12:55;15.03;;;9.23;;
8048;SDS011;20935;42.660;23.342;2023-04-24T04:15:40;10.53;;;9.07;;
8048;SDS011;20935;42.660;23.342;2023-04-24T04:18:26;13.13;;;9.73;;
8048;SDS011;20935;42.660;23.342;2023-04-24T04:21:11;13.83;;;9.07;;
8048;SDS011;20935;42.660;23.342;2023-04-24T04:23:56;13.60;;;8.93;;
8048;SDS011;20935;42.660;23.342;2023-04-24T04:26:43;12.47;;;8.47;;
8048;SDS011;20935;42.660;23.342;2023-04-24T04:29:30;14.63;;;8.47;;
8048;SDS011;20935;42.660;23.342;2023-04-24T04:32:16;11.63;;;8.87;;
8048;SDS011;20935;42.660;23.342;2023-04-24T04:35:02;10.63;;;9.47;;
8048;SDS011;20935;42.660;23.342;2023-04-24T04:37:48;12.60;;;8.00;;
8048;SDS011;20935;42.660;23.342;2023-04-24T04:40:35;10.70;;;8.77;;
8048;SDS011;20935;42.660;23.342;2023-04-24T04:43:22;13.30;;;8.33;;
8048;SDS011;20935;42.660;23.342;2023-04-24T04:46:07;8.93;;;7.60;;
8048;SDS011;20935;42.660;23.342;2023-04-24T04:48:54;10.03;;;7.10;;
8048;SDS011;20935;42.660;23.342;2023-04-24T04:51:40;14.27;;;7.60;;
8048;SDS011;20935;42.660;23.342;2023-04-24T04:54:26;8.47;;;6.87;;
8048;SDS011;20935;42.660;23.342;2023-04-24T04:57:11;13.67;;;7.73;;
8048;SDS011;20935;42.660;23.342;2023-04-24T04:59:58;7.53;;;6.53;;
8048;SDS011;20935;42.660;23.342;2023-04-24T05:02:44;8.97;;;6.93;;
8048;SDS011;20935;42.660;23.342;2023-04-24T05:05:29;9.53;;;6.53;;
8048;SDS011;20935;42.660;23.342;2023-04-24T05:08:15;9.03;;;6.20;;
8048;SDS011;20935;42.660;23.342;2023-04-24T05:11:00;9.83;;;6.53;;
8048;SDS011;20935;42.660;23.342;2023-04-24T05:13:45;13.00;;;6.57;;
8048;SDS011;20935;42.660;23.342;2023-04-24T05:16:32;8.20;;;6.30;;
8048;SDS011;20935;42.660;23.342;2023-04-24T05:19:17;10.37;;;5.87;;
8048;SDS011;20935;42.660;23.342;2023-04-24T05:22:03;11.87;;;5.90;;
8048;SDS011;20935;42.660;23.342;2023-04-24T05:24:50;7.20;;;6.43;;
8048;SDS011;20935;42.660;23.342;2023-04-24T06:40:23;13.33;;;8.80;;
8048;SDS011;20935;42.660;23.342;2023-04-24T06:43:08;10.03;;;9.03;;
8048;SDS011;20935;42.660;23.342;2023-04-24T06:45:54;10.53;;;8.80;;
8048;SDS011;20935;42.660;23.342;2023-04-24T06:48:40;12.63;;;8.70;;
8048;SDS011;20935;42.660;23.342;2023-04-24T06:51:26;9.97;;;8.37;;
8048;SDS011;20935;42.660;23.342;2023-04-24T06:54:12;9.37;;;8.13;;
8048;SDS011;20935;42.660;23.342;2023-04-24T06:56:59;11.77;;;8.53;;
8048;SDS011;20935;42.660;23.342;2023-04-24T06:59:46;10.63;;;8.20;;
8048;SDS011;20935;42.660;23.342;2023-04-24T07:02:31;11.60;;;8.40;;
8048;SDS011;20935;42.660;23.342;2023-04-24T07:05:17;17.40;;;9.13;;
8048;SDS011;20935;42.660;23.342;2023-04-24T07:08:03;13.23;;;9.00;;
8048;SDS011;20935;42.660;23.342;2023-04-24T07:10:50;10.63;;;9.07;;
8048;SDS011;20935;42.660;23.342;2023-04-24T07:13:37;15.57;;;9.27;;
8048;SDS011;20935;42.660;23.342;2023-04-24T07:16:25;13.73;;;9.13;;
8048;SDS011;20935;42.660;23.342;2023-04-24T07:19:10;9.50;;;8.60;;
8048;SDS011;20935;42.660;23.342;2023-04-24T07:21:56;12.20;;;9.50;;
8048;SDS011;20935;42.660;23.342;2023-04-24T07:24:42;12.93;;;9.43;;
8048;SDS011;20935;42.660;23.342;2023-04-24T07:27:27;11.10;;;9.60;;
8048;SDS011;20935;42.660;23.342;2023-04-24T07:30:14;12.37;;;8.93;;
8048;SDS011;20935;42.660;23.342;2023-04-24T07:33:00;13.90;;;9.73;;
8048;SDS011;20935;42.660;23.342;2023-04-24T07:35:45;11.63;;;8.97;;
8048;SDS011;20935;42.660;23.342;2023-04-24T07:38:30;10.40;;;8.37;;
8048;SDS011;20935;42.660;23.342;2023-04-24T07:42:16;11.53;;;8.03;;
8048;SDS011;20935;42.660;23.342;2023-04-24T07:45:01;8.77;;;7.93;;
8048;SDS011;20935;42.660;23.342;2023-04-24T07:47:47;10.47;;;9.37;;
8048;SDS011;20935;42.660;23.342;2023-04-24T07:50:33;8.87;;;7.53;;
8048;SDS011;20935;42.660;23.342;2023-04-24T07:53:19;12.73;;;8.30;;
8048;SDS011;20935;42.660;23.342;2023-04-24T07:56:04;9.17;;;7.77;;
8048;SDS011;20935;42.660;23.342;2023-04-24T07:58:51;9.10;;;7.77;;
8048;SDS011;20935;42.660;23.342;2023-04-24T08:01:37;10.57;;;7.10;;
8048;SDS011;20935;42.660;23.342;2023-04-24T08:04:22;10.60;;;6.97;;
8048;SDS011;20935;42.660;23.342;2023-04-24T08:07:08;7.60;;;6.80;;
8048;SDS011;20935;42.660;23.342;2023-04-24T08:09:53;10.77;;;7.37;;
8048;SDS011;20935;42.660;23.342;2023-04-24T08:12:39;9.53;;;7.90;;
8048;SDS011;20935;42.660;23.342;2023-04-24T08:15:26;8.80;;;7.90;;
8048;SDS011;20935;42.660;23.342;2023-04-24T08:18:12;9.87;;;7.77;;
8048;SDS011;20935;42.660;23.342;2023-04-24T08:20:59;8.67;;;7.40;;
8048;SDS011;20935;42.660;23.342;2023-04-24T08:23:45;11.63;;;7.20;;
8048;SDS011;20935;42.660;23.342;2023-04-24T08:26:30;8.60;;;7.37;;
8048;SDS011;20935;42.660;23.342;2023-04-24T08:29:16;7.43;;;6.73;;
8048;SDS011;20935;42.660;23.342;2023-04-24T08:32:03;10.93;;;7.97;;
8048;SDS011;20935;42.660;23.342;2023-04-24T08:34:49;9.30;;;7.77;;
8048;SDS011;20935;42.660;23.342;2023-04-24T08:37:36;11.57;;;8.07;;
8048;SDS011;20935;42.660;23.342;2023-04-24T08:40:22;10.00;;;7.37;;
8048;SDS011;20935;42.660;23.342;2023-04-24T08:43:13;9.00;;;7.67;;
8048;SDS011;20935;42.660;23.342;2023-04-24T08:45:59;8.73;;;7.83;;
8048;SDS011;20935;42.660;23.342;2023-04-24T08:48:50;8.23;;;6.70;;
8048;SDS011;20935;42.660;23.342;2023-04-24T08:51:37;8.77;;;7.00;;
8048;SDS011;20935;42.660;23.342;2023-04-24T08:54:24;9.90;;;7.30;;
8048;SDS011;20935;42.660;23.342;2023-04-24T08:57:10;8.50;;;6.30;;
8048;SDS011;20935;42.660;23.342;2023-04-24T08:59:56;11.07;;;7.40;;
8048;SDS011;20935;42.660;23.342;2023-04-24T09:02:43;6.87;;;5.97;;
8048;SDS011;20935;42.660;23.342;2023-04-24T09:05:31;9.30;;;5.93;;
8048;SDS011;20935;42.660;23.342;2023-04-24T09:08:18;14.60;;;6.27;;
8048;SDS011;20935;42.660;23.342;2023-04-24T09:11:04;7.27;;;6.23;;
8048;SDS011;20935;42.660;23.342;2023-04-24T09:13:50;7.30;;;6.10;;
8048;SDS011;20935;42.660;23.342;2023-04-24T09:16:38;7.57;;;6.43;;
8048;SDS011;20935;42.660;23.342;2023-04-24T09:19:23;9.10;;;6.57;;
8048;SDS011;20935;42.660;23.342;2023-04-24T09:22:10;9.33;;;6.37;;
8048;SDS011;20935;42.660;23.342;2023-04-24T09:25:01;9.73;;;6.07;;
8048;SDS011;20935;42.660;23.342;2023-04-24T09:27:50;10.30;;;6.90;;
8048;SDS011;20935;42.660;23.342;2023-04-24T09:30:39;11.30;;;6.03;;
8048;SDS011;20935;42.660;23.342;2023-04-24T09:33:24;7.63;;;5.50;;
8048;SDS011;20935;42.660;23.342;2023-04-24T09:36:09;8.27;;;6.00;;
8048;SDS011;20935;42.660;23.342;2023-04-24T09:38:58;7.27;;;6.20;;
8048;SDS011;20935;42.660;23.342;2023-04-24T09:41:45;7.47;;;5.80;;
8048;SDS011;20935;42.660;23.342;2023-04-24T09:44:33;6.93;;;5.67;;
8048;SDS011;20935;42.660;23.342;2023-04-24T09:47:19;7.03;;;6.13;;
8048;SDS011;20935;42.660;23.342;2023-04-24T09:50:12;7.60;;;6.50;;
8048;SDS011;20935;42.660;23.342;2023-04-24T09:53:01;8.93;;;6.00;;
8048;SDS011;20935;42.660;23.342;2023-04-24T09:55:49;8.27;;;6.03;;
8048;SDS011;20935;42.660;23.342;2023-04-24T09:58:34;7.27;;;6.23;;
8048;SDS011;20935;42.660;23.342;2023-04-24T10:01:28;6.90;;;6.00;;
8048;SDS011;20935;42.660;23.342;2023-04-24T10:04:16;5.97;;;5.37;;
8048;SDS011;20935;42.660;23.342;2023-04-24T10:07:03;6.53;;;5.93;;
8048;SDS011;20935;42.660;23.342;2023-04-24T10:09:50;8.83;;;5.73;;
8048;SDS011;20935;42.660;23.342;2023-04-24T10:12:37;7.40;;;5.70;;
8048;SDS011;20935;42.660;23.342;2023-04-24T10:15:23;7.17;;;5.37;;
8048;SDS011;20935;42.660;23.342;2023-04-24T10:18:09;8.20;;;5.80;;
8048;SDS011;20935;42.660;23.342;2023-04-24T10:20:55;8.67;;;5.30;;
8048;SDS011;20935;42.660;23.342;2023-04-24T10:23:41;7.50;;;5.83;;
8048;SDS011;20935;42.660;23.342;2023-04-24T10:26:30;8.30;;;5.40;;
8048;SDS011;20935;42.660;23.342;2023-04-24T10:29:18;9.33;;;5.20;;
8048;SDS011;20935;42.660;23.342;2023-04-24T10:32:06;8.83;;;5.87;;
8048;SDS011;20935;42.660;23.342;2023-04-24T10:34:54;10.77;;;5.70;;
8048;SDS011;20935;42.660;23.342;2023-04-24T10:37:41;7.67;;;5.57;;
8048;SDS011;20935;42.660;23.342;2023-04-24T10:40:30;11.30;;;5.50;;
8048;SDS011;20935;42.660;23.342;2023-04-24T10:43:17;11.63;;;5.80;;
8048;SDS011;20935;42.660;23.342;2023-04-24T10:46:05;6.77;;;5.83;;
8048;SDS011;20935;42.660;23.342;2023-04-24T10:48:52;6.63;;;5.30;;
8048;SDS011;20935;42.660;23.342;2023-04-24T10:51:46;7.47;;;6.10;;
8048;SDS011;20935;42.660;23.342;2023-04-24T10:54:34;5.97;;;5.40;;
8048;SDS011;20935;42.660;23.342;2023-04-24T10:57:27;8.10;;;5.37;;
8048;SDS011;20935;42.660;23.342;2023-04-24T11:00:15;7.17;;;5.10;;
8048;SDS011;20935;42.660;23.342;2023-04-24T11:03:05;6.07;;;4.33;;
8048;SDS011;20935;42.660;23.342;2023-04-24T11:05:52;6.87;;;5.20;;
8048;SDS011;20935;42.660;23.342;2023-04-24T11:08:42;8.07;;;4.70;;
8048;SDS011;20935;42.660;23.342;2023-04-24T11:11:29;7.47;;;4.90;;
8048;SDS011;20935;42.660;23.342;2023-04-24T11:14:15;7.37;;;4.90;;
8048;SDS011;20935;42.660;23.342;2023-04-24T11:17:01;6.40;;;5.13;;
8048;SDS011;20935;42.660;23.342;2023-04-24T11:19:49;6.03;;;5.13;;
8048;SDS011;20935;42.660;23.342;2023-04-24T11:22:36;6.23;;;4.40;;
8048;SDS011;20935;42.660;23.342;2023-04-24T11:25:23;7.67;;;5.03;;
8048;SDS011;20935;42.660;23.342;2023-04-24T11:28:09;5.93;;;4.40;;
8048;SDS011;20935;42.660;23.342;2023-04-24T11:31:05;6.03;;;3.90;;
8048;SDS011;20935;42.660;23.342;2023-04-24T11:34:20;6.77;;;3.73;;
8048;SDS011;20935;42.660;23.342;2023-04-24T11:37:08;4.50;;;3.50;;
8048;SDS011;20935;42.660;23.342;2023-04-24T11:39:55;5.07;;;3.70;;
8048;SDS011;20935;42.660;23.342;2023-04-24T11:42:42;5.20;;;3.50;;
8048;SDS011;20935;42.660;23.342;2023-04-24T11:45:29;9.27;;;3.50;;
8048;SDS011;20935;42.660;23.342;2023-04-24T11:48:18;4.07;;;3.50;;
8048;SDS011;20935;42.660;23.342;2023-04-24T11:51:04;6.03;;;4.60;;
8048;SDS011;20935;42.660;23.342;2023-04-24T11:53:50;5.40;;;4.90;;
8048;SDS011;20935;42.660;23.342;2023-04-24T11:56:36;6.20;;;5.60;;
8048;SDS011;20935;42.660;23.342;2023-04-24T11:59:21;5.80;;;5.30;;
8048;SDS011;20935;42.660;23.342;2023-04-24T12:02:07;6.37;;;5.77;;
8048;SDS011;20935;42.660;23.342;2023-04-24T12:04:53;6.83;;;4.83;;
8048;SDS011;20935;42.660;23.342;2023-04-24T12:07:40;5.13;;;4.63;;
8048;SDS011;20935;42.660;23.342;2023-04-24T12:10:29;5.57;;;4.80;;
8048;SDS011;20935;42.660;23.342;2023-04-24T12:13:16;6.03;;;5.00;;
8048;SDS011;20935;42.660;23.342;2023-04-24T12:16:03;5.37;;;4.57;;
8048;SDS011;20935;42.660;23.342;2023-04-24T12:18:50;5.07;;;4.57;;
8048;SDS011;20935;42.660;23.342;2023-04-24T12:21:36;5.73;;;4.83;;
8048;SDS011;20935;42.660;23.342;2023-04-24T12:24:21;4.83;;;4.43;;
8048;SDS011;20935;42.660;23.342;2023-04-24T12:27:08;4.60;;;4.20;;
8048;SDS011;20935;42.660;23.342;2023-04-24T12:30:05;5.23;;;4.00;;
8048;SDS011;20935;42.660;23.342;2023-04-24T12:32:56;6.23;;;4.37;;
8048;SDS011;20935;42.660;23.342;2023-04-24T12:35:43;4.30;;;3.90;;
8048;SDS011;20935;42.660;23.342;2023-04-24T12:38:28;3.97;;;3.67;;
8048;SDS011;20935;42.660;23.342;2023-04-24T12:41:24;4.63;;;4.23;;
8048;SDS011;20935;42.660;23.342;2023-04-24T12:44:11;4.43;;;3.77;;
8048;SDS011;20935;42.660;23.342;2023-04-24T12:46:57;5.47;;;4.03;;
8048;SDS011;20935;42.660;23.342;2023-04-24T12:49:43;4.60;;;3.83;;
8048;SDS011;20935;42.660;23.342;2023-04-24T12:52:29;4.80;;;4.40;;
8048;SDS011;20935;42.660;23.342;2023-04-24T12:55:15;6.03;;;4.50;;
8048;SDS011;20935;42.660;23.342;2023-04-24T12:58:00;4.77;;;4.37;;
8048;SDS011;20935;42.660;23.342;2023-04-24T13:00:48;6.93;;;4.83;;
8048;SDS011;20935;42.660;23.342;2023-04-24T13:03:33;5.30;;;4.80;;
8048;SDS011;20935;42.660;23.342;2023-04-24T13:06:19;5.13;;;4.37;;
8048;SDS011;20935;42.660;23.342;2023-04-24T13:09:04;7.57;;;4.50;;
8048;SDS011;20935;42.660;23.342;2023-04-24T13:11:50;7.07;;;5.10;;
8048;SDS011;20935;42.660;23.342;2023-04-24T13:14:36;7.10;;;4.60;;
8048;SDS011;20935;42.660;23.342;2023-04-24T13:17:23;6.60;;;4.90;;
8048;SDS011;20935;42.660;23.342;2023-04-24T13:20:08;7.23;;;5.00;;
8048;SDS011;20935;42.660;23.342;2023-04-24T13:22:54;5.23;;;4.77;;
8048;SDS011;20935;42.660;23.342;2023-04-24T13:25:40;5.17;;;4.67;;
8048;SDS011;20935;42.660;23.342;2023-04-24T13:28:25;5.90;;;4.70;;
8048;SDS011;20935;42.660;23.342;2023-04-24T13:31:11;8.33;;;5.53;;
8048;SDS011;20935;42.660;23.342;2023-04-24T13:33:58;8.17;;;4.97;;
8048;SDS011;20935;42.660;23.342;2023-04-24T13:36:44;6.13;;;4.90;;
8048;SDS011;20935;42.660;23.342;2023-04-24T13:39:30;5.97;;;5.37;;
8048;SDS011;20935;42.660;23.342;2023-04-24T13:42:16;5.33;;;4.87;;
8048;SDS011;20935;42.660;23.342;2023-04-24T13:45:02;6.20;;;4.97;;
8048;SDS011;20935;42.660;23.342;2023-04-24T13:47:49;5.43;;;4.93;;
8048;SDS011;20935;42.660;23.342;2023-04-24T13:50:36;6.20;;;4.80;;
8048;SDS011;20935;42.660;23.342;2023-04-24T13:53:21;5.13;;;4.63;;
8048;SDS011;20935;42.660;23.342;2023-04-24T13:56:06;4.93;;;4.43;;
8048;SDS011;20935;42.660;23.342;2023-04-24T13:58:52;7.47;;;4.60;;
8048;SDS011;20935;42.660;23.342;2023-04-24T14:01:38;6.30;;;4.70;;
8048;SDS011;20935;42.660;23.342;2023-04-24T14:04:23;5.10;;;4.60;;
8048;SDS011;20935;42.660;23.342;2023-04-24T14:07:10;6.20;;;4.63;;
8048;SDS011;20935;42.660;23.342;2023-04-24T14:09:55;8.13;;;5.10;;
8048;SDS011;20935;42.660;23.342;2023-04-24T14:12:41;6.33;;;5.03;;
8048;SDS011;20935;42.660;23.342;2023-04-24T14:15:27;5.20;;;4.70;;
8048;SDS011;20935;42.660;23.342;2023-04-24T14:18:13;6.83;;;4.50;;
8048;SDS011;20935;42.660;23.342;2023-04-24T14:20:59;5.07;;;4.60;;
8048;SDS011;20935;42.660;23.342;2023-04-24T14:23:47;5.80;;;4.63;;
8048;SDS011;20935;42.660;23.342;2023-04-24T14:26:32;6.20;;;5.10;;
8048;SDS011;20935;42.660;23.342;2023-04-24T14:29:18;5.40;;;4.80;;
8048;SDS011;20935;42.660;23.342;2023-04-24T14:32:04;4.13;;;3.60;;
8048;SDS011;20935;42.660;23.342;2023-04-24T14:34:50;4.13;;;3.73;;
8048;SDS011;20935;42.660;23.342;2023-04-24T14:37:35;4.47;;;4.03;;
8048;SDS011;20935;42.660;23.342;2023-04-24T14:40:23;3.90;;;3.60;;
8048;SDS011;20935;42.660;23.342;2023-04-24T14:43:08;4.70;;;3.90;;
8048;SDS011;20935;42.660;23.342;2023-04-24T14:45:54;4.50;;;4.10;;
8048;SDS011;20935;42.660;23.342;2023-04-24T14:48:40;3.97;;;3.57;;
8048;SDS011;20935;42.660;23.342;2023-04-24T14:51:25;5.90;;;3.90;;
8048;SDS011;20935;42.660;23.342;2023-04-24T14:54:10;5.13;;;4.20;;
8048;SDS011;20935;42.660;23.342;2023-04-24T14:56:57;6.30;;;4.00;;
8048;SDS011;20935;42.660;23.342;2023-04-24T14:59:43;6.87;;;4.23;;
8048;SDS011;20935;42.660;23.342;2023-04-24T15:02:28;7.60;;;4.50;;
8048;SDS011;20935;42.660;23.342;2023-04-24T15:05:14;6.13;;;4.50;;
8048;SDS011;20935;42.660;23.342;2023-04-24T15:07:59;5.93;;;5.07;;
8048;SDS011;20935;42.660;23.342;2023-04-24T15:10:47;10.70;;;5.93;;
8048;SDS011;20935;42.660;23.342;2023-04-24T15:13:35;8.70;;;5.40;;
8048;SDS011;20935;42.660;23.342;2023-04-24T15:16:20;6.53;;;5.27;;
8048;SDS011;20935;42.660;23.342;2023-04-24T15:19:06;6.60;;;5.50;;
8048;SDS011;20935;42.660;23.342;2023-04-24T15:21:51;6.10;;;5.50;;
8048;SDS011;20935;42.660;23.342;2023-04-24T15:24:37;6.03;;;5.50;;
8048;SDS011;20935;42.660;23.342;2023-04-24T15:27:22;6.97;;;5.53;;
8048;SDS011;20935;42.660;23.342;2023-04-24T15:30:10;6.07;;;5.57;;
8048;SDS011;20935;42.660;23.342;2023-04-24T15:32:56;7.70;;;5.70;;
8048;SDS011;20935;42.660;23.342;2023-04-24T15:35:42;12.00;;;5.80;;
8048;SDS011;20935;42.660;23.342;2023-04-24T15:38:28;7.27;;;6.53;;
8048;SDS011;20935;42.660;23.342;2023-04-24T15:41:13;7.33;;;6.13;;
8048;SDS011;20935;42.660;23.342;2023-04-24T15:43:58;9.33;;;6.20;;
8048;SDS011;20935;42.660;23.342;2023-04-24T15:46:45;7.47;;;6.03;;
8048;SDS011;20935;42.660;23.342;2023-04-24T15:49:31;7.90;;;6.73;;
8048;SDS011;20935;42.660;23.342;2023-04-24T15:52:16;8.13;;;6.03;;
8048;SDS011;20935;42.660;23.342;2023-04-24T15:55:02;9.97;;;6.23;;
8048;SDS011;20935;42.660;23.342;2023-04-24T15:57:48;7.43;;;5.70;;
8048;SDS011;20935;42.660;23.342;2023-04-24T16:00:34;8.13;;;6.33;;
8048;SDS011;20935;42.660;23.342;2023-04-24T16:03:21;11.77;;;6.40;;
8048;SDS011;20935;42.660;23.342;2023-04-24T16:06:06;9.00;;;6.37;;
8048;SDS011;20935;42.660;23.342;2023-04-24T16:08:52;8.20;;;6.77;;
8048;SDS011;20935;42.660;23.342;2023-04-24T16:11:37;8.27;;;6.60;;
8048;SDS011;20935;42.660;23.342;2023-04-24T16:14:23;8.63;;;7.20;;
8048;SDS011;20935;42.660;23.342;2023-04-24T16:17:09;6.83;;;6.10;;
8048;SDS011;20935;42.660;23.342;2023-04-24T16:19:56;10.27;;;9.10;;
8048;SDS011;20935;42.660;23.342;2023-04-24T16:22:42;9.90;;;7.87;;
8048;SDS011;20935;42.660;23.342;2023-04-24T16:25:28;9.07;;;8.17;;
8048;SDS011;20935;42.660;23.342;2023-04-24T16:28:14;9.70;;;8.70;;
8048;SDS011;20935;42.660;23.342;2023-04-24T16:31:00;12.77;;;10.27;;
8048;SDS011;20935;42.660;23.342;2023-04-24T16:33:45;10.27;;;9.27;;
8048;SDS011;20935;42.660;23.342;2023-04-24T16:36:33;8.90;;;8.00;;
8048;SDS011;20935;42.660;23.342;2023-04-24T16:39:19;9.03;;;8.13;;
8048;SDS011;20935;42.660;23.342;2023-04-24T16:42:05;9.83;;;8.33;;
8048;SDS011;20935;42.660;23.342;2023-04-24T16:44:51;12.27;;;9.37;;
8048;SDS011;20935;42.660;23.342;2023-04-24T16:47:37;11.13;;;9.43;;
8048;SDS011;20935;42.660;23.342;2023-04-24T16:50:23;11.80;;;8.90;;
8048;SDS011;20935;42.660;23.342;2023-04-24T16:53:10;13.63;;;9.43;;
8048;SDS011;20935;42.660;23.342;2023-04-24T16:55:56;12.27;;;9.97;;
8048;SDS011;20935;42.660;23.342;2023-04-24T16:58:42;10.00;;;8.57;;
8048;SDS011;20935;42.660;23.342;2023-04-24T17:01:28;11.20;;;10.10;;
8048;SDS011;20935;42.660;23.342;2023-04-24T17:04:13;12.60;;;9.90;;
8048;SDS011;20935;42.660;23.342;2023-04-24T17:07:00;11.10;;;9.47;;
8048;SDS011;20935;42.660;23.342;2023-04-24T17:09:47;9.93;;;8.93;;
8048;SDS011;20935;42.660;23.342;2023-04-24T17:12:33;12.80;;;9.90;;
8048;SDS011;20935;42.660;23.342;2023-04-24T17:15:19;14.53;;;10.03;;
8048;SDS011;20935;42.660;23.342;2023-04-24T17:18:05;12.13;;;10.87;;
8048;SDS011;20935;42.660;23.342;2023-04-24T17:20:51;13.07;;;11.40;;
8048;SDS011;20935;42.660;23.342;2023-04-24T17:23:37;10.83;;;9.73;;
8048;SDS011;20935;42.660;23.342;2023-04-24T17:26:25;13.63;;;10.47;;
8048;SDS011;20935;42.660;23.342;2023-04-24T17:29:11;12.07;;;10.87;;
8048;SDS011;20935;42.660;23.342;2023-04-24T17:31:57;14.33;;;12.10;;
8048;SDS011;20935;42.660;23.342;2023-04-24T17:34:43;16.13;;;11.80;;
8048;SDS011;20935;42.660;23.342;2023-04-24T17:37:30;14.90;;;12.00;;
8048;SDS011;20935;42.660;23.342;2023-04-24T17:40:17;15.40;;;12.00;;
8048;SDS011;20935;42.660;23.342;2023-04-24T17:43:05;15.93;;;10.87;;
8048;SDS011;20935;42.660;23.342;2023-04-24T17:45:51;15.63;;;13.37;;
8048;SDS011;20935;42.660;23.342;2023-04-24T17:48:38;13.70;;;12.30;;
8048;SDS011;20935;42.660;23.342;2023-04-24T17:51:24;16.53;;;11.93;;